Florence, Wisconsin
Current Conditions -  °F | °C
As of 10:54 AM on Thursday 18 Dec 2014 (Local Time) from KIMT Reporting Station
Clear Clear  
Wind Chill: 18°   Ceiling: Unl
Heat Index: 25°   Visibility: 10mi
Dew Point: 17°   Wind: 6mph
Humidity: 72%   Direction: 360°N
Pressure: 30.25"   Gusts: NA
Location:  45.92°N, 88.25°W
Report Text: KIMT 181654Z AUTO 36005KT 10SM CLR M04/M08 A3025 RMK AO2 SLP263 T10391083
Loading
Personal Weather Stations






























Interactive Weather Map New forecast layout! Learn more

10-Day Weather Forecast

Advertisements
Track Severe Weather on mobile